sensor_id;sensor_type;location;lat;lon;timestamp;temperature;humidity
46217;DHT22;47258;59.424;13.482;2023-05-01T00:02:00;22.30;57.30
46217;DHT22;47258;59.424;13.482;2023-05-01T00:04:34;22.30;57.30
46217;DHT22;47258;59.424;13.482;2023-05-01T00:07:10;22.30;57.20
46217;DHT22;47258;59.424;13.482;2023-05-01T00:09:43;22.30;57.20
46217;DHT22;47258;59.424;13.482;2023-05-01T00:12:20;22.30;57.20
46217;DHT22;47258;59.424;13.482;2023-05-01T00:14:58;22.30;57.30
46217;DHT22;47258;59.424;13.482;2023-05-01T00:17:32;22.20;57.50
46217;DHT22;47258;59.424;13.482;2023-05-01T00:20:09;22.30;58.20
46217;DHT22;47258;59.424;13.482;2023-05-01T00:22:49;22.30;57.30
46217;DHT22;47258;59.424;13.482;2023-05-01T00:25:33;22.30;57.20
46217;DHT22;47258;59.424;13.482;2023-05-01T00:28:13;22.30;57.40
46217;DHT22;47258;59.424;13.482;2023-05-01T00:30:49;22.20;57.60
46217;DHT22;47258;59.424;13.482;2023-05-01T00:33:33;22.20;57.70
46217;DHT22;47258;59.424;13.482;2023-05-01T00:36:15;22.20;57.90
46217;DHT22;47258;59.424;13.482;2023-05-01T00:38:52;22.20;58.00
46217;DHT22;47258;59.424;13.482;2023-05-01T00:41:36;22.20;58.00
46217;DHT22;47258;59.424;13.482;2023-05-01T00:44:16;22.20;58.00
46217;DHT22;47258;59.424;13.482;2023-05-01T00:47:01;22.20;58.30
46217;DHT22;47258;59.424;13.482;2023-05-01T00:49:54;22.20;58.30
46217;DHT22;47258;59.424;13.482;2023-05-01T00:52:41;22.20;58.50
46217;DHT22;47258;59.424;13.482;2023-05-01T00:55:27;22.20;58.50
46217;DHT22;47258;59.424;13.482;2023-05-01T00:58:09;22.20;58.70
46217;DHT22;47258;59.424;13.482;2023-05-01T01:01:00;22.20;58.00
46217;DHT22;47258;59.424;13.482;2023-05-01T01:03:38;22.20;58.80
46217;DHT22;47258;59.424;13.482;2023-05-01T01:06:26;22.20;59.10
46217;DHT22;47258;59.424;13.482;2023-05-01T01:09:26;22.20;59.30
46217;DHT22;47258;59.424;13.482;2023-05-01T01:12:14;22.20;59.60
46217;DHT22;47258;59.424;13.482;2023-05-01T01:15:08;22.20;59.70
46217;DHT22;47258;59.424;13.482;2023-05-01T01:17:56;22.20;59.90
46217;DHT22;47258;59.424;13.482;2023-05-01T01:20:44;22.20;60.30
46217;DHT22;47258;59.424;13.482;2023-05-01T01:24:17;22.20;60.60
46217;DHT22;47258;59.424;13.482;2023-05-01T01:30:50;22.10;60.80
46217;DHT22;47258;59.424;13.482;2023-05-01T01:33:53;22.10;61.00
46217;DHT22;47258;59.424;13.482;2023-05-01T01:36:44;22.10;61.30
46217;DHT22;47258;59.424;13.482;2023-05-01T01:39:34;22.10;61.80
46217;DHT22;47258;59.424;13.482;2023-05-01T01:42:12;22.10;61.80
46217;DHT22;47258;59.424;13.482;2023-05-01T01:44:55;22.10;61.80
46217;DHT22;47258;59.424;13.482;2023-05-01T01:47:43;22.10;62.20
46217;DHT22;47258;59.424;13.482;2023-05-01T01:50:35;22.10;61.90
46217;DHT22;47258;59.424;13.482;2023-05-01T01:53:17;22.20;61.70
46217;DHT22;47258;59.424;13.482;2023-05-01T01:55:56;22.10;61.20
46217;DHT22;47258;59.424;13.482;2023-05-01T01:58:48;22.20;61.00
46217;DHT22;47258;59.424;13.482;2023-05-01T02:01:40;22.20;60.90
46217;DHT22;47258;59.424;13.482;2023-05-01T02:04:27;22.20;60.60
46217;DHT22;47258;59.424;13.482;2023-05-01T02:07:22;22.10;60.40
46217;DHT22;47258;59.424;13.482;2023-05-01T02:09:59;22.10;60.20
46217;DHT22;47258;59.424;13.482;2023-05-01T02:12:50;22.10;60.20
46217;DHT22;47258;59.424;13.482;2023-05-01T02:15:43;22.10;60.30
46217;DHT22;47258;59.424;13.482;2023-05-01T02:18:24;22.10;60.10
46217;DHT22;47258;59.424;13.482;2023-05-01T02:21:03;22.10;60.10
46217;DHT22;47258;59.424;13.482;2023-05-01T02:23:56;22.10;60.00
46217;DHT22;47258;59.424;13.482;2023-05-01T02:26:41;22.10;60.30
46217;DHT22;47258;59.424;13.482;2023-05-01T02:29:15;22.10;60.90
46217;DHT22;47258;59.424;13.482;2023-05-01T02:31:49;22.20;61.10
46217;DHT22;47258;59.424;13.482;2023-05-01T02:34:27;22.10;61.20
46217;DHT22;47258;59.424;13.482;2023-05-01T02:37:01;22.20;61.00
46217;DHT22;47258;59.424;13.482;2023-05-01T02:39:39;22.20;61.00
46217;DHT22;47258;59.424;13.482;2023-05-01T02:42:25;22.20;60.80
46217;DHT22;47258;59.424;13.482;2023-05-01T02:45:08;22.20;60.80
46217;DHT22;47258;59.424;13.482;2023-05-01T02:47:47;22.20;60.80
46217;DHT22;47258;59.424;13.482;2023-05-01T02:50:31;22.20;59.90
46217;DHT22;47258;59.424;13.482;2023-05-01T02:53:13;22.10;60.40
46217;DHT22;47258;59.424;13.482;2023-05-01T02:55:54;22.10;60.60
46217;DHT22;47258;59.424;13.482;2023-05-01T02:58:29;22.10;60.60
46217;DHT22;47258;59.424;13.482;2023-05-01T03:01:19;22.10;60.70
46217;DHT22;47258;59.424;13.482;2023-05-01T03:03:56;22.10;61.50
46217;DHT22;47258;59.424;13.482;2023-05-01T03:06:34;22.10;59.80
46217;DHT22;47258;59.424;13.482;2023-05-01T03:09:10;22.10;60.50
46217;DHT22;47258;59.424;13.482;2023-05-01T03:12:01;22.10;60.60
46217;DHT22;47258;59.424;13.482;2023-05-01T03:14:41;22.10;60.60
46217;DHT22;47258;59.424;13.482;2023-05-01T03:17:19;22.10;60.60
46217;DHT22;47258;59.424;13.482;2023-05-01T03:20:00;22.10;60.70
46217;DHT22;47258;59.424;13.482;2023-05-01T03:22:42;22.10;61.10
46217;DHT22;47258;59.424;13.482;2023-05-01T03:25:16;22.10;61.10
46217;DHT22;47258;59.424;13.482;2023-05-01T03:27:53;22.10;61.00
46217;DHT22;47258;59.424;13.482;2023-05-01T03:30:38;22.10;61.20
46217;DHT22;47258;59.424;13.482;2023-05-01T03:33:26;22.20;60.90
46217;DHT22;47258;59.424;13.482;2023-05-01T03:36:06;22.20;60.60
46217;DHT22;47258;59.424;13.482;2023-05-01T03:38:47;22.20;60.40
46217;DHT22;47258;59.424;13.482;2023-05-01T03:41:25;22.20;60.20
46217;DHT22;47258;59.424;13.482;2023-05-01T03:44:20;22.10;60.00
46217;DHT22;47258;59.424;13.482;2023-05-01T03:47:00;22.20;59.90
46217;DHT22;47258;59.424;13.482;2023-05-01T03:49:46;22.20;59.70
46217;DHT22;47258;59.424;13.482;2023-05-01T03:52:34;22.20;59.60
46217;DHT22;47258;59.424;13.482;2023-05-01T03:55:24;22.20;59.50
46217;DHT22;47258;59.424;13.482;2023-05-01T03:58:04;22.20;59.40
46217;DHT22;47258;59.424;13.482;2023-05-01T04:00:49;22.20;59.30
46217;DHT22;47258;59.424;13.482;2023-05-01T04:03:33;22.20;59.60
46217;DHT22;47258;59.424;13.482;2023-05-01T04:06:06;22.20;59.50
46217;DHT22;47258;59.424;13.482;2023-05-01T04:08:41;22.20;59.50
46217;DHT22;47258;59.424;13.482;2023-05-01T04:11:14;22.20;59.60
46217;DHT22;47258;59.424;13.482;2023-05-01T04:13:56;22.20;59.60
46217;DHT22;47258;59.424;13.482;2023-05-01T04:16:39;22.20;59.60
46217;DHT22;47258;59.424;13.482;2023-05-01T04:19:20;22.20;59.60
46217;DHT22;47258;59.424;13.482;2023-05-01T04:21:56;22.20;59.40
46217;DHT22;47258;59.424;13.482;2023-05-01T04:24:32;22.20;59.30
46217;DHT22;47258;59.424;13.482;2023-05-01T04:27:06;22.20;59.20
46217;DHT22;47258;59.424;13.482;2023-05-01T04:29:41;22.20;59.30
46217;DHT22;47258;59.424;13.482;2023-05-01T04:32:29;22.20;59.20
46217;DHT22;47258;59.424;13.482;2023-05-01T04:35:06;22.20;59.00
46217;DHT22;47258;59.424;13.482;2023-05-01T04:37:43;22.20;58.90
46217;DHT22;47258;59.424;13.482;2023-05-01T04:40:17;22.20;58.90
46217;DHT22;47258;59.424;13.482;2023-05-01T04:42:51;22.20;58.80
46217;DHT22;47258;59.424;13.482;2023-05-01T04:45:32;22.20;58.70
46217;DHT22;47258;59.424;13.482;2023-05-01T04:48:24;22.20;58.80
46217;DHT22;47258;59.424;13.482;2023-05-01T04:51:04;22.20;58.60
46217;DHT22;47258;59.424;13.482;2023-05-01T04:53:39;22.20;58.60
46217;DHT22;47258;59.424;13.482;2023-05-01T04:56:16;22.20;59.10
46217;DHT22;47258;59.424;13.482;2023-05-01T04:58:49;22.20;58.50
46217;DHT22;47258;59.424;13.482;2023-05-01T05:01:29;22.20;58.40
46217;DHT22;47258;59.424;13.482;2023-05-01T05:04:05;22.20;58.40
46217;DHT22;47258;59.424;13.482;2023-05-01T05:06:40;22.20;58.40
46217;DHT22;47258;59.424;13.482;2023-05-01T05:09:17;22.20;58.30
46217;DHT22;47258;59.424;13.482;2023-05-01T05:11:53;22.10;58.30
46217;DHT22;47258;59.424;13.482;2023-05-01T05:14:29;22.20;58.40
46217;DHT22;47258;59.424;13.482;2023-05-01T05:17:00;22.20;58.30
46217;DHT22;47258;59.424;13.482;2023-05-01T05:19:35;22.20;58.30
46217;DHT22;47258;59.424;13.482;2023-05-01T05:22:13;22.20;58.40
46217;DHT22;47258;59.424;13.482;2023-05-01T05:24:47;22.20;58.40
46217;DHT22;47258;59.424;13.482;2023-05-01T05:27:34;22.20;58.30
46217;DHT22;47258;59.424;13.482;2023-05-01T05:30:17;22.20;58.40
46217;DHT22;47258;59.424;13.482;2023-05-01T05:32:50;22.20;58.50
46217;DHT22;47258;59.424;13.482;2023-05-01T05:35:31;22.20;58.50
46217;DHT22;47258;59.424;13.482;2023-05-01T05:38:08;22.20;59.00
46217;DHT22;47258;59.424;13.482;2023-05-01T05:40:50;22.20;58.40
46217;DHT22;47258;59.424;13.482;2023-05-01T05:43:27;22.20;58.40
46217;DHT22;47258;59.424;13.482;2023-05-01T05:46:09;22.20;58.40
46217;DHT22;47258;59.424;13.482;2023-05-01T05:48:47;22.20;58.40
46217;DHT22;47258;59.424;13.482;2023-05-01T05:51:24;22.20;58.30
46217;DHT22;47258;59.424;13.482;2023-05-01T05:54:03;22.20;58.50
46217;DHT22;47258;59.424;13.482;2023-05-01T05:56:43;22.20;58.40
46217;DHT22;47258;59.424;13.482;2023-05-01T05:59:13;22.20;58.50
46217;DHT22;47258;59.424;13.482;2023-05-01T06:01:49;22.20;58.40
46217;DHT22;47258;59.424;13.482;2023-05-01T06:04:19;22.20;58.40
46217;DHT22;47258;59.424;13.482;2023-05-01T06:07:03;22.20;58.30
46217;DHT22;47258;59.424;13.482;2023-05-01T06:09:38;22.20;58.30
46217;DHT22;47258;59.424;13.482;2023-05-01T06:12:15;22.20;58.30
46217;DHT22;47258;59.424;13.482;2023-05-01T06:14:45;22.20;58.20
46217;DHT22;47258;59.424;13.482;2023-05-01T06:17:20;22.20;58.20
46217;DHT22;47258;59.424;13.482;2023-05-01T06:19:52;22.20;58.20
46217;DHT22;47258;59.424;13.482;2023-05-01T06:22:31;22.20;58.30
46217;DHT22;47258;59.424;13.482;2023-05-01T06:25:06;22.20;58.30
46217;DHT22;47258;59.424;13.482;2023-05-01T06:27:39;22.20;58.20
46217;DHT22;47258;59.424;13.482;2023-05-01T06:30:13;22.20;58.20
46217;DHT22;47258;59.424;13.482;2023-05-01T06:32:55;22.20;58.20
46217;DHT22;47258;59.424;13.482;2023-05-01T06:35:30;22.20;58.10
46217;DHT22;47258;59.424;13.482;2023-05-01T06:38:09;22.20;58.10
46217;DHT22;47258;59.424;13.482;2023-05-01T06:40:51;22.20;58.00
46217;DHT22;47258;59.424;13.482;2023-05-01T06:43:26;22.20;58.00
46217;DHT22;47258;59.424;13.482;2023-05-01T06:46:00;22.20;58.00
46217;DHT22;47258;59.424;13.482;2023-05-01T06:48:36;22.20;57.90
46217;DHT22;47258;59.424;13.482;2023-05-01T06:51:14;22.20;57.60
46217;DHT22;47258;59.424;13.482;2023-05-01T06:54:01;22.20;57.70
46217;DHT22;47258;59.424;13.482;2023-05-01T06:56:48;22.20;58.10
46217;DHT22;47258;59.424;13.482;2023-05-01T06:59:29;22.20;58.20
46217;DHT22;47258;59.424;13.482;2023-05-01T07:02:00;22.20;57.90
46217;DHT22;47258;59.424;13.482;2023-05-01T07:04:37;22.20;57.80
46217;DHT22;47258;59.424;13.482;2023-05-01T07:07:10;22.20;57.60
46217;DHT22;47258;59.424;13.482;2023-05-01T07:09:50;22.20;57.50
46217;DHT22;47258;59.424;13.482;2023-05-01T07:12:26;22.20;57.40
46217;DHT22;47258;59.424;13.482;2023-05-01T07:15:03;22.20;57.20
46217;DHT22;47258;59.424;13.482;2023-05-01T07:17:33;22.20;57.00
46217;DHT22;47258;59.424;13.482;2023-05-01T07:20:06;22.20;56.90
46217;DHT22;47258;59.424;13.482;2023-05-01T07:22:37;22.20;56.90
46217;DHT22;47258;59.424;13.482;2023-05-01T07:25:25;22.20;56.90
46217;DHT22;47258;59.424;13.482;2023-05-01T07:27:58;22.20;56.90
46217;DHT22;47258;59.424;13.482;2023-05-01T07:30:34;22.10;56.80
46217;DHT22;47258;59.424;13.482;2023-05-01T07:33:09;22.20;56.80
46217;DHT22;47258;59.424;13.482;2023-05-01T07:35:44;22.10;56.70
46217;DHT22;47258;59.424;13.482;2023-05-01T07:38:20;22.10;56.60
46217;DHT22;47258;59.424;13.482;2023-05-01T07:41:00;22.10;56.60
46217;DHT22;47258;59.424;13.482;2023-05-01T07:43:35;22.10;56.60
46217;DHT22;47258;59.424;13.482;2023-05-01T07:46:05;22.10;56.50
46217;DHT22;47258;59.424;13.482;2023-05-01T07:48:36;22.10;56.50
46217;DHT22;47258;59.424;13.482;2023-05-01T07:51:09;22.10;56.90
46217;DHT22;47258;59.424;13.482;2023-05-01T07:53:45;22.10;57.20
46217;DHT22;47258;59.424;13.482;2023-05-01T07:56:24;22.10;57.20
46217;DHT22;47258;59.424;13.482;2023-05-01T07:58:58;22.10;57.20
46217;DHT22;47258;59.424;13.482;2023-05-01T08:01:36;22.10;57.30
46217;DHT22;47258;59.424;13.482;2023-05-01T08:04:07;22.10;57.30
46217;DHT22;47258;59.424;13.482;2023-05-01T08:06:39;22.10;57.30
46217;DHT22;47258;59.424;13.482;2023-05-01T08:09:13;22.10;57.20
46217;DHT22;47258;59.424;13.482;2023-05-01T08:11:57;22.10;57.20
46217;DHT22;47258;59.424;13.482;2023-05-01T08:14:32;22.10;57.20
46217;DHT22;47258;59.424;13.482;2023-05-01T08:17:08;22.10;57.10
46217;DHT22;47258;59.424;13.482;2023-05-01T08:19:46;22.10;57.10
46217;DHT22;47258;59.424;13.482;2023-05-01T08:22:28;22.10;57.20
46217;DHT22;47258;59.424;13.482;2023-05-01T08:25:10;22.00;57.10
46217;DHT22;47258;59.424;13.482;2023-05-01T08:27:49;22.00;57.20
46217;DHT22;47258;59.424;13.482;2023-05-01T08:30:30;22.00;57.10
46217;DHT22;47258;59.424;13.482;2023-05-01T08:33:09;22.00;56.80
46217;DHT22;47258;59.424;13.482;2023-05-01T08:35:51;22.00;56.90
46217;DHT22;47258;59.424;13.482;2023-05-01T08:38:25;22.00;57.00
46217;DHT22;47258;59.424;13.482;2023-05-01T08:41:05;22.00;57.00
46217;DHT22;47258;59.424;13.482;2023-05-01T08:43:50;22.00;56.80
46217;DHT22;47258;59.424;13.482;2023-05-01T08:46:37;22.00;56.80
46217;DHT22;47258;59.424;13.482;2023-05-01T08:49:19;21.90;56.70
46217;DHT22;47258;59.424;13.482;2023-05-01T08:52:04;21.90;56.80
46217;DHT22;47258;59.424;13.482;2023-05-01T08:54:45;21.90;57.20
46217;DHT22;47258;59.424;13.482;2023-05-01T08:57:24;22.00;57.40
46217;DHT22;47258;59.424;13.482;2023-05-01T09:00:03;22.00;57.30
46217;DHT22;47258;59.424;13.482;2023-05-01T09:02:36;22.00;57.20
46217;DHT22;47258;59.424;13.482;2023-05-01T09:05:10;21.90;57.50
46217;DHT22;47258;59.424;13.482;2023-05-01T09:07:40;21.90;57.60
46217;DHT22;47258;59.424;13.482;2023-05-01T09:10:14;21.90;57.50
46217;DHT22;47258;59.424;13.482;2023-05-01T09:12:51;21.90;57.50
46217;DHT22;47258;59.424;13.482;2023-05-01T09:15:26;22.00;57.40
46217;DHT22;47258;59.424;13.482;2023-05-01T09:17:59;21.90;57.20
46217;DHT22;47258;59.424;13.482;2023-05-01T09:20:32;22.00;57.20
46217;DHT22;47258;59.424;13.482;2023-05-01T09:23:05;22.00;57.20
46217;DHT22;47258;59.424;13.482;2023-05-01T09:25:44;22.00;57.20
46217;DHT22;47258;59.424;13.482;2023-05-01T09:28:17;22.00;57.10
46217;DHT22;47258;59.424;13.482;2023-05-01T09:30:51;22.00;57.10
46217;DHT22;47258;59.424;13.482;2023-05-01T09:33:26;22.00;57.00
46217;DHT22;47258;59.424;13.482;2023-05-01T09:36:02;22.10;57.00
46217;DHT22;47258;59.424;13.482;2023-05-01T09:38:34;22.10;56.90
46217;DHT22;47258;59.424;13.482;2023-05-01T09:41:18;22.10;56.90
46217;DHT22;47258;59.424;13.482;2023-05-01T09:43:56;22.10;56.90
46217;DHT22;47258;59.424;13.482;2023-05-01T09:46:27;22.10;56.80
46217;DHT22;47258;59.424;13.482;2023-05-01T09:48:57;22.10;56.80
46217;DHT22;47258;59.424;13.482;2023-05-01T09:51:32;22.10;56.90
46217;DHT22;47258;59.424;13.482;2023-05-01T09:54:21;22.10;56.80
46217;DHT22;47258;59.424;13.482;2023-05-01T09:57:06;22.10;56.80
46217;DHT22;47258;59.424;13.482;2023-05-01T09:59:41;22.20;57.00
46217;DHT22;47258;59.424;13.482;2023-05-01T10:02:39;22.20;57.00
46217;DHT22;47258;59.424;13.482;2023-05-01T10:05:11;22.20;57.10
46217;DHT22;47258;59.424;13.482;2023-05-01T10:07:57;22.20;57.00
46217;DHT22;47258;59.424;13.482;2023-05-01T10:10:37;22.30;56.90
46217;DHT22;47258;59.424;13.482;2023-05-01T10:13:19;22.30;56.90
46217;DHT22;47258;59.424;13.482;2023-05-01T10:16:01;22.30;56.90
46217;DHT22;47258;59.424;13.482;2023-05-01T10:18:38;22.30;56.80
46217;DHT22;47258;59.424;13.482;2023-05-01T10:21:16;22.30;56.80
46217;DHT22;47258;59.424;13.482;2023-05-01T10:23:58;22.30;56.80
46217;DHT22;47258;59.424;13.482;2023-05-01T10:26:44;22.40;56.80
46217;DHT22;47258;59.424;13.482;2023-05-01T10:29:25;22.40;56.80
46217;DHT22;47258;59.424;13.482;2023-05-01T10:32:12;22.40;56.80
46217;DHT22;47258;59.424;13.482;2023-05-01T10:35:01;22.40;56.80
46217;DHT22;47258;59.424;13.482;2023-05-01T10:37:45;22.40;56.80
46217;DHT22;47258;59.424;13.482;2023-05-01T10:40:45;22.40;56.80
46217;DHT22;47258;59.424;13.482;2023-05-01T10:43:25;22.40;56.80
46217;DHT22;47258;59.424;13.482;2023-05-01T10:46:32;22.50;56.60
46217;DHT22;47258;59.424;13.482;2023-05-01T10:49:03;22.40;56.70
46217;DHT22;47258;59.424;13.482;2023-05-01T10:52:00;22.40;56.40
46217;DHT22;47258;59.424;13.482;2023-05-01T10:54:30;22.40;56.30
46217;DHT22;47258;59.424;13.482;2023-05-01T10:57:01;22.40;56.20
46217;DHT22;47258;59.424;13.482;2023-05-01T11:02:36;22.30;56.00
46217;DHT22;47258;59.424;13.482;2023-05-01T11:05:06;22.30;56.00
46217;DHT22;47258;59.424;13.482;2023-05-01T11:07:43;22.30;56.10
46217;DHT22;47258;59.424;13.482;2023-05-01T11:10:29;22.30;56.10
46217;DHT22;47258;59.424;13.482;2023-05-01T11:12:59;22.20;56.00
46217;DHT22;47258;59.424;13.482;2023-05-01T11:15:36;22.20;55.90
46217;DHT22;47258;59.424;13.482;2023-05-01T11:18:12;22.20;55.90
46217;DHT22;47258;59.424;13.482;2023-05-01T11:20:51;22.20;56.10
46217;DHT22;47258;59.424;13.482;2023-05-01T11:23:27;22.20;56.10
46217;DHT22;47258;59.424;13.482;2023-05-01T11:26:03;22.20;56.00
46217;DHT22;47258;59.424;13.482;2023-05-01T11:28:33;22.20;56.00
46217;DHT22;47258;59.424;13.482;2023-05-01T11:31:04;22.20;55.90
46217;DHT22;47258;59.424;13.482;2023-05-01T11:33:33;22.20;55.90
46217;DHT22;47258;59.424;13.482;2023-05-01T11:36:08;22.20;55.80
46217;DHT22;47258;59.424;13.482;2023-05-01T11:38:46;22.20;56.40
46217;DHT22;47258;59.424;13.482;2023-05-01T11:41:19;22.20;56.80
46217;DHT22;47258;59.424;13.482;2023-05-01T11:43:51;22.20;57.10
46217;DHT22;47258;59.424;13.482;2023-05-01T11:46:25;22.20;57.20
46217;DHT22;47258;59.424;13.482;2023-05-01T11:49:01;22.20;57.50
46217;DHT22;47258;59.424;13.482;2023-05-01T11:51:32;22.20;57.50
46217;DHT22;47258;59.424;13.482;2023-05-01T11:54:07;22.20;57.70
46217;DHT22;47258;59.424;13.482;2023-05-01T11:56:39;22.20;57.50
46217;DHT22;47258;59.424;13.482;2023-05-01T11:59:13;22.20;57.20
46217;DHT22;47258;59.424;13.482;2023-05-01T12:01:47;22.20;57.10
46217;DHT22;47258;59.424;13.482;2023-05-01T12:04:30;22.20;56.90
46217;DHT22;47258;59.424;13.482;2023-05-01T12:07:03;22.20;56.90
46217;DHT22;47258;59.424;13.482;2023-05-01T12:09:34;22.20;57.20
46217;DHT22;47258;59.424;13.482;2023-05-01T12:12:08;22.20;57.50
46217;DHT22;47258;59.424;13.482;2023-05-01T12:14:40;22.20;57.70
46217;DHT22;47258;59.424;13.482;2023-05-01T12:17:10;22.20;58.00
46217;DHT22;47258;59.424;13.482;2023-05-01T12:19:47;22.20;58.20
46217;DHT22;47258;59.424;13.482;2023-05-01T12:22:17;22.20;58.40
46217;DHT22;47258;59.424;13.482;2023-05-01T12:24:52;22.20;58.60
46217;DHT22;47258;59.424;13.482;2023-05-01T12:27:19;22.30;58.50
46217;DHT22;47258;59.424;13.482;2023-05-01T12:29:49;22.30;58.50
46217;DHT22;47258;59.424;13.482;2023-05-01T12:32:31;22.30;58.40
46217;DHT22;47258;59.424;13.482;2023-05-01T12:35:16;22.30;58.40
46217;DHT22;47258;59.424;13.482;2023-05-01T12:37:48;22.30;58.20
46217;DHT22;47258;59.424;13.482;2023-05-01T12:40:19;22.40;58.10
46217;DHT22;47258;59.424;13.482;2023-05-01T12:42:56;22.40;58.10
46217;DHT22;47258;59.424;13.482;2023-05-01T12:45:29;22.40;58.10
46217;DHT22;47258;59.424;13.482;2023-05-01T12:48:13;22.40;58.00
46217;DHT22;47258;59.424;13.482;2023-05-01T12:50:47;22.50;58.00
46217;DHT22;47258;59.424;13.482;2023-05-01T12:53:20;22.50;57.90
46217;DHT22;47258;59.424;13.482;2023-05-01T12:55:52;22.50;57.90
46217;DHT22;47258;59.424;13.482;2023-05-01T12:58:22;22.50;57.80
46217;DHT22;47258;59.424;13.482;2023-05-01T13:00:54;22.50;57.70
46217;DHT22;47258;59.424;13.482;2023-05-01T13:03:25;22.50;57.70
46217;DHT22;47258;59.424;13.482;2023-05-01T13:05:57;22.40;57.60
46217;DHT22;47258;59.424;13.482;2023-05-01T13:08:31;22.40;57.60
46217;DHT22;47258;59.424;13.482;2023-05-01T13:11:10;22.40;57.50
46217;DHT22;47258;59.424;13.482;2023-05-01T13:13:43;22.50;57.40
46217;DHT22;47258;59.424;13.482;2023-05-01T13:16:15;22.50;57.20
46217;DHT22;47258;59.424;13.482;2023-05-01T13:18:46;22.50;57.20
46217;DHT22;47258;59.424;13.482;2023-05-01T13:21:17;22.50;57.10
46217;DHT22;47258;59.424;13.482;2023-05-01T13:23:53;22.50;57.10
46217;DHT22;47258;59.424;13.482;2023-05-01T13:26:31;22.50;57.10
46217;DHT22;47258;59.424;13.482;2023-05-01T13:29:03;22.50;57.00
46217;DHT22;47258;59.424;13.482;2023-05-01T13:31:34;22.50;57.00
46217;DHT22;47258;59.424;13.482;2023-05-01T13:34:06;22.50;57.00
46217;DHT22;47258;59.424;13.482;2023-05-01T13:36:35;22.50;56.90
46217;DHT22;47258;59.424;13.482;2023-05-01T13:39:06;22.50;56.90
46217;DHT22;47258;59.424;13.482;2023-05-01T13:41:42;22.50;56.90
46217;DHT22;47258;59.424;13.482;2023-05-01T13:44:14;22.50;56.90
46217;DHT22;47258;59.424;13.482;2023-05-01T13:46:45;22.50;56.80
46217;DHT22;47258;59.424;13.482;2023-05-01T13:49:19;22.50;56.80
46217;DHT22;47258;59.424;13.482;2023-05-01T13:51:49;22.50;56.80
46217;DHT22;47258;59.424;13.482;2023-05-01T13:54:17;22.50;56.80
46217;DHT22;47258;59.424;13.482;2023-05-01T13:56:49;22.50;56.80
46217;DHT22;47258;59.424;13.482;2023-05-01T13:59:21;22.50;56.70
46217;DHT22;47258;59.424;13.482;2023-05-01T14:01:53;22.50;56.90
46217;DHT22;47258;59.424;13.482;2023-05-01T14:04:27;22.50;57.00
46217;DHT22;47258;59.424;13.482;2023-05-01T14:06:56;22.50;57.10
46217;DHT22;47258;59.424;13.482;2023-05-01T14:09:29;22.50;57.10
46217;DHT22;47258;59.424;13.482;2023-05-01T14:12:10;22.50;57.10
46217;DHT22;47258;59.424;13.482;2023-05-01T14:14:46;22.50;57.10
46217;DHT22;47258;59.424;13.482;2023-05-01T14:17:16;22.50;57.10
46217;DHT22;47258;59.424;13.482;2023-05-01T14:19:52;22.50;57.00
46217;DHT22;47258;59.424;13.482;2023-05-01T14:22:22;22.50;57.50
46217;DHT22;47258;59.424;13.482;2023-05-01T14:24:58;22.50;57.00
46217;DHT22;47258;59.424;13.482;2023-05-01T14:27:35;22.60;57.10
46217;DHT22;47258;59.424;13.482;2023-05-01T14:30:07;22.60;57.00
46217;DHT22;47258;59.424;13.482;2023-05-01T14:32:42;22.60;57.00
46217;DHT22;47258;59.424;13.482;2023-05-01T14:35:11;22.60;57.00
46217;DHT22;47258;59.424;13.482;2023-05-01T14:37:44;22.60;56.90
46217;DHT22;47258;59.424;13.482;2023-05-01T14:40:25;22.60;56.90
46217;DHT22;47258;59.424;13.482;2023-05-01T14:43:02;22.60;56.90
46217;DHT22;47258;59.424;13.482;2023-05-01T14:45:33;22.60;56.90
46217;DHT22;47258;59.424;13.482;2023-05-01T14:48:09;22.60;56.90
46217;DHT22;47258;59.424;13.482;2023-05-01T14:50:40;22.60;56.90
46217;DHT22;47258;59.424;13.482;2023-05-01T14:53:19;22.60;56.90
46217;DHT22;47258;59.424;13.482;2023-05-01T14:55:53;22.60;56.90
46217;DHT22;47258;59.424;13.482;2023-05-01T14:58:31;22.60;56.80
46217;DHT22;47258;59.424;13.482;2023-05-01T15:01:01;22.60;56.90
46217;DHT22;47258;59.424;13.482;2023-05-01T15:03:36;22.60;56.90
46217;DHT22;47258;59.424;13.482;2023-05-01T15:06:07;22.60;56.90
46217;DHT22;47258;59.424;13.482;2023-05-01T15:08:39;22.60;56.90
46217;DHT22;47258;59.424;13.482;2023-05-01T15:11:15;22.60;56.90
46217;DHT22;47258;59.424;13.482;2023-05-01T15:13:57;22.60;57.00
46217;DHT22;47258;59.424;13.482;2023-05-01T15:16:32;22.60;56.90
46217;DHT22;47258;59.424;13.482;2023-05-01T15:19:07;22.60;56.90
46217;DHT22;47258;59.424;13.482;2023-05-01T15:21:42;22.60;56.90
46217;DHT22;47258;59.424;13.482;2023-05-01T15:24:20;22.60;56.90
46217;DHT22;47258;59.424;13.482;2023-05-01T15:26:55;22.60;56.80
46217;DHT22;47258;59.424;13.482;2023-05-01T15:29:31;22.60;56.80
46217;DHT22;47258;59.424;13.482;2023-05-01T15:32:04;22.60;56.80
46217;DHT22;47258;59.424;13.482;2023-05-01T15:34:39;22.60;57.00
46217;DHT22;47258;59.424;13.482;2023-05-01T15:37:16;22.60;57.20
46217;DHT22;47258;59.424;13.482;2023-05-01T15:39:52;22.60;57.20
46217;DHT22;47258;59.424;13.482;2023-05-01T15:42:37;22.60;57.10
46217;DHT22;47258;59.424;13.482;2023-05-01T15:45:16;22.60;56.90
46217;DHT22;47258;59.424;13.482;2023-05-01T15:47:54;22.60;57.20
46217;DHT22;47258;59.424;13.482;2023-05-01T15:50:32;22.70;57.40
46217;DHT22;47258;59.424;13.482;2023-05-01T15:53:06;22.70;57.50
46217;DHT22;47258;59.424;13.482;2023-05-01T15:55:42;22.70;57.50
46217;DHT22;47258;59.424;13.482;2023-05-01T15:58:16;22.70;57.30
46217;DHT22;47258;59.424;13.482;2023-05-01T16:01:04;22.70;57.70
46217;DHT22;47258;59.424;13.482;2023-05-01T16:03:48;22.70;57.10
46217;DHT22;47258;59.424;13.482;2023-05-01T16:06:24;22.70;57.00
46217;DHT22;47258;59.424;13.482;2023-05-01T16:09:03;22.70;56.90
46217;DHT22;47258;59.424;13.482;2023-05-01T16:11:39;22.70;56.90
46217;DHT22;47258;59.424;13.482;2023-05-01T16:14:16;22.70;56.90
46217;DHT22;47258;59.424;13.482;2023-05-01T16:16:56;22.70;56.90
46217;DHT22;47258;59.424;13.482;2023-05-01T16:19:28;22.60;56.90
46217;DHT22;47258;59.424;13.482;2023-05-01T16:22:02;22.70;57.10
46217;DHT22;47258;59.424;13.482;2023-05-01T16:24:31;22.60;57.20
46217;DHT22;47258;59.424;13.482;2023-05-01T16:26:59;22.60;57.30
46217;DHT22;47258;59.424;13.482;2023-05-01T16:29:31;22.60;57.30